sensor_id;sensor_type;location;lat;lon;timestamp;temperature;humidity
75688;HTU21D;64300;45.034;38.910;2023-03-14T00:00:16;4.18;96.76
75688;HTU21D;64300;45.034;38.910;2023-03-14T00:02:42;4.20;96.78
75688;HTU21D;64300;45.034;38.910;2023-03-14T00:05:08;4.20;96.75
75688;HTU21D;64300;45.034;38.910;2023-03-14T00:07:36;4.22;96.78
75688;HTU21D;64300;45.034;38.910;2023-03-14T00:10:04;4.23;96.75
75688;HTU21D;64300;45.034;38.910;2023-03-14T00:12:31;4.24;96.72
75688;HTU21D;64300;45.034;38.910;2023-03-14T00:14:57;4.28;96.72
75688;HTU21D;64300;45.034;38.910;2023-03-14T00:17:24;4.28;96.75
75688;HTU21D;64300;45.034;38.910;2023-03-14T00:19:50;4.31;96.64
75688;HTU21D;64300;45.034;38.910;2023-03-14T00:22:19;4.32;96.60
75688;HTU21D;64300;45.034;38.910;2023-03-14T00:24:46;4.33;96.55
75688;HTU21D;64300;45.034;38.910;2023-03-14T00:27:11;4.34;96.46
75688;HTU21D;64300;45.034;38.910;2023-03-14T00:29:37;4.34;96.46
75688;HTU21D;64300;45.034;38.910;2023-03-14T00:32:04;4.30;96.48
75688;HTU21D;64300;45.034;38.910;2023-03-14T00:34:30;4.28;96.58
75688;HTU21D;64300;45.034;38.910;2023-03-14T00:36:57;4.28;96.69
75688;HTU21D;64300;45.034;38.910;2023-03-14T00:39:23;4.30;96.71
75688;HTU21D;64300;45.034;38.910;2023-03-14T00:41:50;4.33;96.71
75688;HTU21D;64300;45.034;38.910;2023-03-14T00:44:15;4.37;96.71
75688;HTU21D;64300;45.034;38.910;2023-03-14T00:46:41;4.39;96.62
75688;HTU21D;64300;45.034;38.910;2023-03-14T00:49:07;4.42;96.62
75688;HTU21D;64300;45.034;38.910;2023-03-14T00:51:33;4.45;96.55
75688;HTU21D;64300;45.034;38.910;2023-03-14T00:54:00;4.48;96.48
75688;HTU21D;64300;45.034;38.910;2023-03-14T00:56:26;4.49;96.45
75688;HTU21D;64300;45.034;38.910;2023-03-14T00:58:56;4.50;96.33
75688;HTU21D;64300;45.034;38.910;2023-03-14T01:01:22;4.51;96.29
75688;HTU21D;64300;45.034;38.910;2023-03-14T01:03:54;4.53;96.20
75688;HTU21D;64300;45.034;38.910;2023-03-14T01:06:26;4.54;96.20
75688;HTU21D;64300;45.034;38.910;2023-03-14T01:08:53;4.57;96.21
75688;HTU21D;64300;45.034;38.910;2023-03-14T01:11:22;4.59;96.17
75688;HTU21D;64300;45.034;38.910;2023-03-14T01:13:50;4.61;96.18
75688;HTU21D;64300;45.034;38.910;2023-03-14T01:16:18;4.64;96.23
75688;HTU21D;64300;45.034;38.910;2023-03-14T01:18:45;4.66;96.15
75688;HTU21D;64300;45.034;38.910;2023-03-14T01:21:15;4.68;96.09
75688;HTU21D;64300;45.034;38.910;2023-03-14T01:23:42;4.69;96.04
75688;HTU21D;64300;45.034;38.910;2023-03-14T01:26:10;4.72;96.01
75688;HTU21D;64300;45.034;38.910;2023-03-14T01:28:37;4.74;95.98
75688;HTU21D;64300;45.034;38.910;2023-03-14T01:31:05;4.75;95.95
75688;HTU21D;64300;45.034;38.910;2023-03-14T01:33:32;4.76;95.89
75688;HTU21D;64300;45.034;38.910;2023-03-14T01:35:58;4.76;95.87
75688;HTU21D;64300;45.034;38.910;2023-03-14T01:38:24;4.79;95.94
75688;HTU21D;64300;45.034;38.910;2023-03-14T01:40:50;4.75;95.94
75688;HTU21D;64300;45.034;38.910;2023-03-14T01:43:19;4.73;95.99
75688;HTU21D;64300;45.034;38.910;2023-03-14T01:51:20;4.78;95.83
75688;HTU21D;64300;45.034;38.910;2023-03-14T01:53:48;4.78;95.79
75688;HTU21D;64300;45.034;38.910;2023-03-14T01:56:16;4.78;95.78
75688;HTU21D;64300;45.034;38.910;2023-03-14T01:58:47;4.79;95.74
75688;HTU21D;64300;45.034;38.910;2023-03-14T02:01:16;4.78;95.63
75688;HTU21D;64300;45.034;38.910;2023-03-14T02:03:50;4.76;95.53
75688;HTU21D;64300;45.034;38.910;2023-03-14T02:06:23;4.74;95.46
75688;HTU21D;64300;45.034;38.910;2023-03-14T02:08:50;4.72;95.42
75688;HTU21D;64300;45.034;38.910;2023-03-14T02:11:21;4.65;95.33
75688;HTU21D;64300;45.034;38.910;2023-03-14T02:14:00;4.60;95.25
75688;HTU21D;64300;45.034;38.910;2023-03-14T02:17:04;4.51;95.32
75688;HTU21D;64300;45.034;38.910;2023-03-14T02:26:16;4.47;95.94
75688;HTU21D;64300;45.034;38.910;2023-03-14T02:28:45;4.48;96.09
75688;HTU21D;64300;45.034;38.910;2023-03-14T02:31:11;4.50;96.07
75688;HTU21D;64300;45.034;38.910;2023-03-14T02:33:38;4.54;96.10
75688;HTU21D;64300;45.034;38.910;2023-03-14T02:36:07;4.58;96.17
75688;HTU21D;64300;45.034;38.910;2023-03-14T02:38:49;4.62;96.13
75688;HTU21D;64300;45.034;38.910;2023-03-14T02:41:18;4.65;96.15
75688;HTU21D;64300;45.034;38.910;2023-03-14T02:43:52;4.67;96.07
75688;HTU21D;64300;45.034;38.910;2023-03-14T02:46:21;4.66;95.89
75688;HTU21D;64300;45.034;38.910;2023-03-14T02:51:15;4.62;95.65
75688;HTU21D;64300;45.034;38.910;2023-03-14T02:53:41;4.57;95.61
75688;HTU21D;64300;45.034;38.910;2023-03-14T02:56:11;4.53;95.64
75688;HTU21D;64300;45.034;38.910;2023-03-14T02:58:37;4.50;95.69
75688;HTU21D;64300;45.034;38.910;2023-03-14T03:01:26;4.41;95.73
75688;HTU21D;64300;45.034;38.910;2023-03-14T03:03:53;4.35;95.77
75688;HTU21D;64300;45.034;38.910;2023-03-14T03:06:19;4.31;95.76
75688;HTU21D;64300;45.034;38.910;2023-03-14T03:08:45;4.30;95.79
75688;HTU21D;64300;45.034;38.910;2023-03-14T03:11:27;4.30;95.81
75688;HTU21D;64300;45.034;38.910;2023-03-14T03:13:55;4.29;95.82
75688;HTU21D;64300;45.034;38.910;2023-03-14T03:16:21;4.28;95.91
75688;HTU21D;64300;45.034;38.910;2023-03-14T03:18:47;4.31;96.10
75688;HTU21D;64300;45.034;38.910;2023-03-14T03:21:13;4.35;96.17
75688;HTU21D;64300;45.034;38.910;2023-03-14T03:23:42;4.42;96.11
75688;HTU21D;64300;45.034;38.910;2023-03-14T03:26:12;4.47;96.10
75688;HTU21D;64300;45.034;38.910;2023-03-14T03:28:38;4.54;96.14
75688;HTU21D;64300;45.034;38.910;2023-03-14T03:31:09;4.60;95.97
75688;HTU21D;64300;45.034;38.910;2023-03-14T03:33:37;4.66;95.89
75688;HTU21D;64300;45.034;38.910;2023-03-14T03:36:06;4.71;95.84
75688;HTU21D;64300;45.034;38.910;2023-03-14T03:38:35;4.77;95.73
75688;HTU21D;64300;45.034;38.910;2023-03-14T03:41:05;4.81;95.56
75688;HTU21D;64300;45.034;38.910;2023-03-14T03:43:32;4.87;95.44
75688;HTU21D;64300;45.034;38.910;2023-03-14T03:46:05;4.91;95.28
75688;HTU21D;64300;45.034;38.910;2023-03-14T03:48:32;4.93;95.27
75688;HTU21D;64300;45.034;38.910;2023-03-14T03:51:01;4.92;95.20
75688;HTU21D;64300;45.034;38.910;2023-03-14T03:53:27;4.93;95.20
75688;HTU21D;64300;45.034;38.910;2023-03-14T03:55:53;4.95;95.26
75688;HTU21D;64300;45.034;38.910;2023-03-14T03:58:22;4.94;95.18
75688;HTU21D;64300;45.034;38.910;2023-03-14T04:00:48;4.95;95.15
75688;HTU21D;64300;45.034;38.910;2023-03-14T04:03:13;4.98;95.08
75688;HTU21D;64300;45.034;38.910;2023-03-14T04:05:40;5.04;95.07
75688;HTU21D;64300;45.034;38.910;2023-03-14T04:08:08;5.11;94.95
75688;HTU21D;64300;45.034;38.910;2023-03-14T04:10:37;5.17;94.80
75688;HTU21D;64300;45.034;38.910;2023-03-14T04:13:09;5.23;94.65
75688;HTU21D;64300;45.034;38.910;2023-03-14T04:15:36;5.27;94.49
75688;HTU21D;64300;45.034;38.910;2023-03-14T04:18:08;5.32;94.45
75688;HTU21D;64300;45.034;38.910;2023-03-14T04:20:35;5.36;94.32
75688;HTU21D;64300;45.034;38.910;2023-03-14T04:23:02;5.38;94.14
75688;HTU21D;64300;45.034;38.910;2023-03-14T04:25:28;5.40;93.91
75688;HTU21D;64300;45.034;38.910;2023-03-14T04:27:57;5.41;93.88
75688;HTU21D;64300;45.034;38.910;2023-03-14T04:30:26;5.43;93.72
75688;HTU21D;64300;45.034;38.910;2023-03-14T04:33:02;5.45;93.59
75688;HTU21D;64300;45.034;38.910;2023-03-14T04:35:30;5.48;93.53
75688;HTU21D;64300;45.034;38.910;2023-03-14T04:38:01;5.48;93.44
75688;HTU21D;64300;45.034;38.910;2023-03-14T04:40:29;5.51;93.27
75688;HTU21D;64300;45.034;38.910;2023-03-14T04:43:00;5.53;93.25
75688;HTU21D;64300;45.034;38.910;2023-03-14T04:45:26;5.54;93.26
75688;HTU21D;64300;45.034;38.910;2023-03-14T04:47:54;5.60;93.29
75688;HTU21D;64300;45.034;38.910;2023-03-14T04:50:22;5.64;93.23
75688;HTU21D;64300;45.034;38.910;2023-03-14T04:52:48;5.65;93.11
75688;HTU21D;64300;45.034;38.910;2023-03-14T04:55:14;5.67;93.08
75688;HTU21D;64300;45.034;38.910;2023-03-14T04:57:40;5.70;92.95
75688;HTU21D;64300;45.034;38.910;2023-03-14T05:00:09;5.70;92.91
75688;HTU21D;64300;45.034;38.910;2023-03-14T05:02:50;5.71;92.79
75688;HTU21D;64300;45.034;38.910;2023-03-14T05:05:34;5.74;92.76
75688;HTU21D;64300;45.034;38.910;2023-03-14T05:08:06;5.76;92.94
75688;HTU21D;64300;45.034;38.910;2023-03-14T05:10:55;5.79;92.53
75688;HTU21D;64300;45.034;38.910;2023-03-14T05:13:57;5.79;92.49
75688;HTU21D;64300;45.034;38.910;2023-03-14T05:16:41;5.79;92.49
75688;HTU21D;64300;45.034;38.910;2023-03-14T05:19:25;5.80;92.43
75688;HTU21D;64300;45.034;38.910;2023-03-14T05:22:26;5.79;92.49
75688;HTU21D;64300;45.034;38.910;2023-03-14T05:25:15;5.80;92.35
75688;HTU21D;64300;45.034;38.910;2023-03-14T05:28:00;5.79;92.34
75688;HTU21D;64300;45.034;38.910;2023-03-14T05:30:25;5.81;92.40
75688;HTU21D;64300;45.034;38.910;2023-03-14T05:33:25;5.84;92.43
75688;HTU21D;64300;45.034;38.910;2023-03-14T05:35:51;5.86;92.43
75688;HTU21D;64300;45.034;38.910;2023-03-14T05:38:37;5.92;92.50
75688;HTU21D;64300;45.034;38.910;2023-03-14T05:41:22;6.00;92.49
75688;HTU21D;64300;45.034;38.910;2023-03-14T05:44:11;6.08;92.33
75688;HTU21D;64300;45.034;38.910;2023-03-14T05:46:49;6.14;92.31
75688;HTU21D;64300;45.034;38.910;2023-03-14T05:49:34;6.19;92.14
75688;HTU21D;64300;45.034;38.910;2023-03-14T05:52:16;6.22;92.05
75688;HTU21D;64300;45.034;38.910;2023-03-14T05:55:14;6.24;91.92
75688;HTU21D;64300;45.034;38.910;2023-03-14T05:58:07;6.26;91.82
75688;HTU21D;64300;45.034;38.910;2023-03-14T06:00:53;6.29;91.80
75688;HTU21D;64300;45.034;38.910;2023-03-14T06:03:33;6.35;91.84
75688;HTU21D;64300;45.034;38.910;2023-03-14T06:06:00;6.41;91.93
75688;HTU21D;64300;45.034;38.910;2023-03-14T06:08:26;6.49;91.92
75688;HTU21D;64300;45.034;38.910;2023-03-14T06:10:53;6.60;91.69
75688;HTU21D;64300;45.034;38.910;2023-03-14T06:13:25;6.68;91.47
75688;HTU21D;64300;45.034;38.910;2023-03-14T06:15:51;6.74;91.47
75688;HTU21D;64300;45.034;38.910;2023-03-14T06:18:16;6.83;91.63
75688;HTU21D;64300;45.034;38.910;2023-03-14T06:20:42;6.85;91.38
75688;HTU21D;64300;45.034;38.910;2023-03-14T06:23:12;6.87;91.17
75688;HTU21D;64300;45.034;38.910;2023-03-14T06:25:38;6.89;91.11
75688;HTU21D;64300;45.034;38.910;2023-03-14T06:28:04;6.88;90.92
75688;HTU21D;64300;45.034;38.910;2023-03-14T06:30:30;6.86;90.90
75688;HTU21D;64300;45.034;38.910;2023-03-14T06:32:56;6.90;90.92
75688;HTU21D;64300;45.034;38.910;2023-03-14T06:35:22;6.91;90.82
75688;HTU21D;64300;45.034;38.910;2023-03-14T06:37:48;6.90;90.89
75688;HTU21D;64300;45.034;38.910;2023-03-14T06:40:14;6.93;91.02
75688;HTU21D;64300;45.034;38.910;2023-03-14T06:42:49;6.90;90.64
75688;HTU21D;64300;45.034;38.910;2023-03-14T06:45:17;6.88;90.76
75688;HTU21D;64300;45.034;38.910;2023-03-14T06:47:45;6.93;90.83
75688;HTU21D;64300;45.034;38.910;2023-03-14T06:50:11;6.97;90.67
75688;HTU21D;64300;45.034;38.910;2023-03-14T06:52:38;7.03;90.63
75688;HTU21D;64300;45.034;38.910;2023-03-14T06:55:07;7.09;90.41
75688;HTU21D;64300;45.034;38.910;2023-03-14T06:57:33;7.12;90.24
75688;HTU21D;64300;45.034;38.910;2023-03-14T06:59:59;7.12;90.07
75688;HTU21D;64300;45.034;38.910;2023-03-14T07:02:25;7.16;90.34
75688;HTU21D;64300;45.034;38.910;2023-03-14T07:04:51;7.16;90.34
75688;HTU21D;64300;45.034;38.910;2023-03-14T07:07:17;7.19;90.32
75688;HTU21D;64300;45.034;38.910;2023-03-14T07:09:43;7.25;90.60
75688;HTU21D;64300;45.034;38.910;2023-03-14T07:12:09;7.32;90.71
75688;HTU21D;64300;45.034;38.910;2023-03-14T07:14:35;7.39;90.81
75688;HTU21D;64300;45.034;38.910;2023-03-14T07:17:01;7.44;90.56
75688;HTU21D;64300;45.034;38.910;2023-03-14T07:19:27;7.48;90.54
75688;HTU21D;64300;45.034;38.910;2023-03-14T07:21:53;7.56;90.60
75688;HTU21D;64300;45.034;38.910;2023-03-14T07:24:23;7.62;90.52
75688;HTU21D;64300;45.034;38.910;2023-03-14T07:26:48;7.67;90.34
75688;HTU21D;64300;45.034;38.910;2023-03-14T07:29:14;7.71;89.78
75688;HTU21D;64300;45.034;38.910;2023-03-14T07:31:41;7.73;89.76
75688;HTU21D;64300;45.034;38.910;2023-03-14T07:34:07;7.81;90.06
75688;HTU21D;64300;45.034;38.910;2023-03-14T07:36:37;7.90;89.64
75688;HTU21D;64300;45.034;38.910;2023-03-14T07:39:03;7.98;89.52
75688;HTU21D;64300;45.034;38.910;2023-03-14T07:41:33;8.07;89.54
75688;HTU21D;64300;45.034;38.910;2023-03-14T07:44:17;8.19;89.60
75688;HTU21D;64300;45.034;38.910;2023-03-14T07:46:43;8.29;89.43
75688;HTU21D;64300;45.034;38.910;2023-03-14T07:49:09;8.35;89.34
75688;HTU21D;64300;45.034;38.910;2023-03-14T07:51:34;8.37;88.93
75688;HTU21D;64300;45.034;38.910;2023-03-14T07:54:00;8.33;88.51
75688;HTU21D;64300;45.034;38.910;2023-03-14T07:56:27;8.32;88.38
75688;HTU21D;64300;45.034;38.910;2023-03-14T07:58:53;8.32;88.41
75688;HTU21D;64300;45.034;38.910;2023-03-14T08:01:19;8.31;88.47
75688;HTU21D;64300;45.034;38.910;2023-03-14T08:03:45;8.24;88.38
75688;HTU21D;64300;45.034;38.910;2023-03-14T08:06:11;8.23;88.49
75688;HTU21D;64300;45.034;38.910;2023-03-14T08:08:37;8.23;88.45
75688;HTU21D;64300;45.034;38.910;2023-03-14T08:11:07;8.22;88.27
75688;HTU21D;64300;45.034;38.910;2023-03-14T08:13:37;8.21;88.12
75688;HTU21D;64300;45.034;38.910;2023-03-14T08:16:04;8.21;88.13
75688;HTU21D;64300;45.034;38.910;2023-03-14T08:18:30;8.26;88.38
75688;HTU21D;64300;45.034;38.910;2023-03-14T08:20:55;8.31;88.55
75688;HTU21D;64300;45.034;38.910;2023-03-14T08:23:22;8.31;88.52
75688;HTU21D;64300;45.034;38.910;2023-03-14T08:25:51;8.35;88.74
75688;HTU21D;64300;45.034;38.910;2023-03-14T08:28:18;8.38;88.58
75688;HTU21D;64300;45.034;38.910;2023-03-14T08:30:44;8.43;88.29
75688;HTU21D;64300;45.034;38.910;2023-03-14T08:33:10;8.46;88.44
75688;HTU21D;64300;45.034;38.910;2023-03-14T08:35:40;8.51;88.47
75688;HTU21D;64300;45.034;38.910;2023-03-14T08:38:05;8.58;88.48
75688;HTU21D;64300;45.034;38.910;2023-03-14T08:40:31;8.61;88.48
75688;HTU21D;64300;45.034;38.910;2023-03-14T08:42:57;8.71;88.82
75688;HTU21D;64300;45.034;38.910;2023-03-14T08:45:23;8.79;88.67
75688;HTU21D;64300;45.034;38.910;2023-03-14T08:47:51;8.83;88.35
75688;HTU21D;64300;45.034;38.910;2023-03-14T08:50:17;8.88;88.36
75688;HTU21D;64300;45.034;38.910;2023-03-14T08:52:43;8.91;87.87
75688;HTU21D;64300;45.034;38.910;2023-03-14T08:55:09;8.88;87.71
75688;HTU21D;64300;45.034;38.910;2023-03-14T08:57:35;8.83;87.51
75688;HTU21D;64300;45.034;38.910;2023-03-14T09:00:05;8.80;87.36
75688;HTU21D;64300;45.034;38.910;2023-03-14T09:02:36;8.74;87.42
75688;HTU21D;64300;45.034;38.910;2023-03-14T09:05:02;8.70;87.54
75688;HTU21D;64300;45.034;38.910;2023-03-14T09:07:29;8.65;87.64
75688;HTU21D;64300;45.034;38.910;2023-03-14T09:09:55;8.61;87.71
75688;HTU21D;64300;45.034;38.910;2023-03-14T09:12:21;8.53;87.86
75688;HTU21D;64300;45.034;38.910;2023-03-14T09:14:47;8.47;87.99
75688;HTU21D;64300;45.034;38.910;2023-03-14T09:17:12;8.36;88.09
75688;HTU21D;64300;45.034;38.910;2023-03-14T09:19:38;8.27;88.25
75688;HTU21D;64300;45.034;38.910;2023-03-14T09:22:05;8.18;88.41
75688;HTU21D;64300;45.034;38.910;2023-03-14T09:24:31;8.13;88.68
75688;HTU21D;64300;45.034;38.910;2023-03-14T09:26:56;8.11;88.99
75688;HTU21D;64300;45.034;38.910;2023-03-14T09:29:22;8.08;89.44
75688;HTU21D;64300;45.034;38.910;2023-03-14T09:31:48;8.05;89.45
75688;HTU21D;64300;45.034;38.910;2023-03-14T09:34:15;8.03;89.60
75688;HTU21D;64300;45.034;38.910;2023-03-14T09:36:41;8.03;89.72
75688;HTU21D;64300;45.034;38.910;2023-03-14T09:39:10;8.06;89.87
75688;HTU21D;64300;45.034;38.910;2023-03-14T09:41:41;8.14;89.96
75688;HTU21D;64300;45.034;38.910;2023-03-14T09:46:40;8.26;90.27
75688;HTU21D;64300;45.034;38.910;2023-03-14T09:51:50;8.29;90.17
75688;HTU21D;64300;45.034;38.910;2023-03-14T09:54:44;8.33;90.38
75688;HTU21D;64300;45.034;38.910;2023-03-14T09:57:17;8.41;90.31
75688;HTU21D;64300;45.034;38.910;2023-03-14T09:59:45;8.47;90.23
75688;HTU21D;64300;45.034;38.910;2023-03-14T10:02:20;8.60;90.40
75688;HTU21D;64300;45.034;38.910;2023-03-14T10:04:48;8.73;90.35
75688;HTU21D;64300;45.034;38.910;2023-03-14T10:07:17;8.88;89.99
75688;HTU21D;64300;45.034;38.910;2023-03-14T10:09:52;8.96;89.63
75688;HTU21D;64300;45.034;38.910;2023-03-14T10:12:19;9.03;89.06
75688;HTU21D;64300;45.034;38.910;2023-03-14T10:14:51;9.10;88.91
75688;HTU21D;64300;45.034;38.910;2023-03-14T10:17:20;9.21;88.93
75688;HTU21D;64300;45.034;38.910;2023-03-14T10:19:58;9.36;88.95
75688;HTU21D;64300;45.034;38.910;2023-03-14T10:22:29;9.48;88.36
75688;HTU21D;64300;45.034;38.910;2023-03-14T10:25:01;9.49;87.67
75688;HTU21D;64300;45.034;38.910;2023-03-14T10:27:30;9.54;87.51
75688;HTU21D;64300;45.034;38.910;2023-03-14T10:30:01;9.54;87.32
75688;HTU21D;64300;45.034;38.910;2023-03-14T10:32:36;9.53;86.84
75688;HTU21D;64300;45.034;38.910;2023-03-14T10:35:20;9.46;86.80
75688;HTU21D;64300;45.034;38.910;2023-03-14T10:37:56;9.45;86.93
75688;HTU21D;64300;45.034;38.910;2023-03-14T10:40:31;9.46;86.90
75688;HTU21D;64300;45.034;38.910;2023-03-14T10:42:59;9.41;86.74
75688;HTU21D;64300;45.034;38.910;2023-03-14T10:45:42;9.36;86.39
75688;HTU21D;64300;45.034;38.910;2023-03-14T10:48:19;9.31;86.39
75688;HTU21D;64300;45.034;38.910;2023-03-14T10:50:56;9.31;86.52
75688;HTU21D;64300;45.034;38.910;2023-03-14T10:53:24;9.27;86.45
75688;HTU21D;64300;45.034;38.910;2023-03-14T10:55:50;9.25;86.58
75688;HTU21D;64300;45.034;38.910;2023-03-14T10:58:27;9.25;86.61
75688;HTU21D;64300;45.034;38.910;2023-03-14T11:03:27;9.29;86.80
75688;HTU21D;64300;45.034;38.910;2023-03-14T11:06:12;9.33;86.80
75688;HTU21D;64300;45.034;38.910;2023-03-14T11:14:41;9.46;87.09
75688;HTU21D;64300;45.034;38.910;2023-03-14T11:20:26;9.52;86.74
75688;HTU21D;64300;45.034;38.910;2023-03-14T11:22:59;9.52;86.60
75688;HTU21D;64300;45.034;38.910;2023-03-14T11:30:42;9.59;86.71
75688;HTU21D;64300;45.034;38.910;2023-03-14T11:33:47;9.75;87.20
75688;HTU21D;64300;45.034;38.910;2023-03-14T11:36:22;9.94;87.14
75688;HTU21D;64300;45.034;38.910;2023-03-14T11:38:54;10.04;86.80
75688;HTU21D;64300;45.034;38.910;2023-03-14T11:43:54;10.25;86.67
75688;HTU21D;64300;45.034;38.910;2023-03-14T11:46:34;10.33;86.31
75688;HTU21D;64300;45.034;38.910;2023-03-14T11:51:53;10.45;85.97
75688;HTU21D;64300;45.034;38.910;2023-03-14T11:57:22;10.49;85.78
75688;HTU21D;64300;45.034;38.910;2023-03-14T12:03:02;10.49;85.01
75688;HTU21D;64300;45.034;38.910;2023-03-14T12:08:45;10.42;85.61
75688;HTU21D;64300;45.034;38.910;2023-03-14T12:14:00;10.53;85.69
75688;HTU21D;64300;45.034;38.910;2023-03-14T12:16:33;10.57;85.58
75688;HTU21D;64300;45.034;38.910;2023-03-14T12:21:56;10.70;85.55
75688;HTU21D;64300;45.034;38.910;2023-03-14T12:24:27;10.77;85.40
75688;HTU21D;64300;45.034;38.910;2023-03-14T12:26:59;10.81;85.17
75688;HTU21D;64300;45.034;38.910;2023-03-14T12:29:26;10.84;85.21
75688;HTU21D;64300;45.034;38.910;2023-03-14T12:32:24;10.90;85.58
75688;HTU21D;64300;45.034;38.910;2023-03-14T12:34:50;10.99;85.38
75688;HTU21D;64300;45.034;38.910;2023-03-14T12:37:28;11.09;85.38
75688;HTU21D;64300;45.034;38.910;2023-03-14T12:40:17;11.13;85.21
75688;HTU21D;64300;45.034;38.910;2023-03-14T12:42:58;11.16;84.93
75688;HTU21D;64300;45.034;38.910;2023-03-14T12:45:28;11.17;84.87
75688;HTU21D;64300;45.034;38.910;2023-03-14T12:48:16;11.26;85.35
75688;HTU21D;64300;45.034;38.910;2023-03-14T12:50:55;11.34;85.35
75688;HTU21D;64300;45.034;38.910;2023-03-14T13:01:17;11.61;84.61
75688;HTU21D;64300;45.034;38.910;2023-03-14T13:03:46;11.63;84.43
75688;HTU21D;64300;45.034;38.910;2023-03-14T13:06:55;11.66;84.69
75688;HTU21D;64300;45.034;38.910;2023-03-14T13:09:36;11.63;84.20
75688;HTU21D;64300;45.034;38.910;2023-03-14T13:12:09;11.63;84.35
75688;HTU21D;64300;45.034;38.910;2023-03-14T13:14:40;11.68;84.42
75688;HTU21D;64300;45.034;38.910;2023-03-14T13:17:15;11.69;84.57
75688;HTU21D;64300;45.034;38.910;2023-03-14T13:23:28;11.57;84.26
75688;HTU21D;64300;45.034;38.910;2023-03-14T13:26:02;11.44;84.16
75688;HTU21D;64300;45.034;38.910;2023-03-14T13:28:30;11.38;84.29
75688;HTU21D;64300;45.034;38.910;2023-03-14T13:31:03;11.33;84.30
75688;HTU21D;64300;45.034;38.910;2023-03-14T13:33:30;11.27;84.35
75688;HTU21D;64300;45.034;38.910;2023-03-14T13:36:00;11.27;84.68
75688;HTU21D;64300;45.034;38.910;2023-03-14T13:38:30;11.34;84.98
75688;HTU21D;64300;45.034;38.910;2023-03-14T13:40:59;11.41;85.06
75688;HTU21D;64300;45.034;38.910;2023-03-14T13:43:30;11.46;84.90
75688;HTU21D;64300;45.034;38.910;2023-03-14T13:48:29;11.49;84.95
75688;HTU21D;64300;45.034;38.910;2023-03-14T13:54:22;11.54;85.03
75688;HTU21D;64300;45.034;38.910;2023-03-14T13:56:49;11.52;84.98
75688;HTU21D;64300;45.034;38.910;2023-03-14T13:59:29;11.51;84.94
75688;HTU21D;64300;45.034;38.910;2023-03-14T14:01:57;11.47;84.82
75688;HTU21D;64300;45.034;38.910;2023-03-14T14:04:26;11.43;84.85
75688;HTU21D;64300;45.034;38.910;2023-03-14T14:06:57;11.43;85.06
75688;HTU21D;64300;45.034;38.910;2023-03-14T14:09:38;11.42;85.16
75688;HTU21D;64300;45.034;38.910;2023-03-14T14:12:17;11.40;85.36
75688;HTU21D;64300;45.034;38.910;2023-03-14T14:15:26;11.39;85.66
75688;HTU21D;64300;45.034;38.910;2023-03-14T14:18:01;11.33;85.38
75688;HTU21D;64300;45.034;38.910;2023-03-14T14:20:47;11.28;85.62
75688;HTU21D;64300;45.034;38.910;2023-03-14T14:26:23;11.13;86.02
75688;HTU21D;64300;45.034;38.910;2023-03-14T14:29:04;11.01;85.87
75688;HTU21D;64300;45.034;38.910;2023-03-14T14:31:34;10.94;85.87
75688;HTU21D;64300;45.034;38.910;2023-03-14T14:34:02;10.89;85.97
75688;HTU21D;64300;45.034;38.910;2023-03-14T14:36:43;10.86;86.22
75688;HTU21D;64300;45.034;38.910;2023-03-14T14:42:32;10.78;86.28
75688;HTU21D;64300;45.034;38.910;2023-03-14T14:44:59;10.75;86.35
75688;HTU21D;64300;45.034;38.910;2023-03-14T14:47:28;10.72;86.45
75688;HTU21D;64300;45.034;38.910;2023-03-14T14:50:00;10.72;86.48
75688;HTU21D;64300;45.034;38.910;2023-03-14T14:52:43;10.71;86.72
75688;HTU21D;64300;45.034;38.910;2023-03-14T14:58:48;10.69;87.04
75688;HTU21D;64300;45.034;38.910;2023-03-14T15:01:20;10.66;86.95
75688;HTU21D;64300;45.034;38.910;2023-03-14T15:03:50;10.65;86.99
75688;HTU21D;64300;45.034;38.910;2023-03-14T15:06:17;10.63;87.06
75688;HTU21D;64300;45.034;38.910;2023-03-14T15:08:45;10.63;87.09
75688;HTU21D;64300;45.034;38.910;2023-03-14T15:11:21;10.64;87.20
75688;HTU21D;64300;45.034;38.910;2023-03-14T15:13:48;10.63;87.22
75688;HTU21D;64300;45.034;38.910;2023-03-14T15:16:20;10.64;87.30
75688;HTU21D;64300;45.034;38.910;2023-03-14T15:18:55;10.60;87.33
75688;HTU21D;64300;45.034;38.910;2023-03-14T15:21:22;10.62;87.40
75688;HTU21D;64300;45.034;38.910;2023-03-14T15:23:48;10.60;87.45
75688;HTU21D;64300;45.034;38.910;2023-03-14T15:26:17;10.62;87.45
75688;HTU21D;64300;45.034;38.910;2023-03-14T15:28:44;10.60;87.55
75688;HTU21D;64300;45.034;38.910;2023-03-14T15:31:12;10.59;87.52
75688;HTU21D;64300;45.034;38.910;2023-03-14T15:33:38;10.60;87.63
75688;HTU21D;64300;45.034;38.910;2023-03-14T15:36:10;10.62;87.63
75688;HTU21D;64300;45.034;38.910;2023-03-14T15:38:41;10.63;87.67
75688;HTU21D;64300;45.034;38.910;2023-03-14T15:41:12;10.63;87.72
75688;HTU21D;64300;45.034;38.910;2023-03-14T15:43:37;10.63;87.75
75688;HTU21D;64300;45.034;38.910;2023-03-14T15:46:03;10.64;87.76
75688;HTU21D;64300;45.034;38.910;2023-03-14T15:48:31;10.64;87.76
75688;HTU21D;64300;45.034;38.910;2023-03-14T15:50:57;10.64;87.79
75688;HTU21D;64300;45.034;38.910;2023-03-14T15:53:28;10.64;87.77
75688;HTU21D;64300;45.034;38.910;2023-03-14T15:55:54;10.64;87.77
75688;HTU21D;64300;45.034;38.910;2023-03-14T15:58:21;10.63;87.79
75688;HTU21D;64300;45.034;38.910;2023-03-14T16:00:47;10.64;87.83
75688;HTU21D;64300;45.034;38.910;2023-03-14T16:03:13;10.63;87.83
75688;HTU21D;64300;45.034;38.910;2023-03-14T16:05:42;10.64;87.84
75688;HTU21D;64300;45.034;38.910;2023-03-14T16:08:08;10.65;87.90
75688;HTU21D;64300;45.034;38.910;2023-03-14T16:10:34;10.64;87.96
75688;HTU21D;64300;45.034;38.910;2023-03-14T16:13:00;10.66;87.93
75688;HTU21D;64300;45.034;38.910;2023-03-14T16:15:26;10.65;87.97
75688;HTU21D;64300;45.034;38.910;2023-03-14T16:17:53;10.66;87.96
75688;HTU21D;64300;45.034;38.910;2023-03-14T16:20:19;10.66;87.93
75688;HTU21D;64300;45.034;38.910;2023-03-14T16:22:46;10.65;87.89
75688;HTU21D;64300;45.034;38.910;2023-03-14T16:25:13;10.66;87.87
75688;HTU21D;64300;45.034;38.910;2023-03-14T16:27:40;10.67;87.82
75688;HTU21D;64300;45.034;38.910;2023-03-14T16:30:08;10.66;87.77
75688;HTU21D;64300;45.034;38.910;2023-03-14T16:32:35;10.66;87.67
75688;HTU21D;64300;45.034;38.910;2023-03-14T16:35:01;10.64;87.65
75688;HTU21D;64300;45.034;38.910;2023-03-14T16:37:27;10.64;87.57
75688;HTU21D;64300;45.034;38.910;2023-03-14T16:39:54;10.65;87.37
75688;HTU21D;64300;45.034;38.910;2023-03-14T16:42:21;10.65;87.27
75688;HTU21D;64300;45.034;38.910;2023-03-14T16:44:47;10.64;87.02
75688;HTU21D;64300;45.034;38.910;2023-03-14T16:47:13;10.62;86.83
75688;HTU21D;64300;45.034;38.910;2023-03-14T16:49:40;10.60;86.86
75688;HTU21D;64300;45.034;38.910;2023-03-14T16:52:07;10.59;86.77
75688;HTU21D;64300;45.034;38.910;2023-03-14T16:54:34;10.58;86.63
75688;HTU21D;64300;45.034;38.910;2023-03-14T16:57:00;10.57;86.14